Time;durP1;ratioP1;P1;durP2;ratioP2;P2;SDS_P1;SDS_P2;PMS_P1;PMS_P2;Temp;Humidity;BMP_temperature;BMP_pressure;BME280_temperature;BME280_humidity;BME280_pressure;Samples;Min_cycle;Max_cycle;Signal;HPM_P1;HPM_P2
2023/07/22 00:01:28;;;;;;;4.63;1.75;;;;;;;11.62;100.00;97237.88;5062014;28;20602;-55
2023/07/22 00:03:55;;;;;;;4.07;1.90;;;;;;;11.67;100.00;97237.91;5059060;28;20037;-58
2023/07/22 00:06:22;;;;;;;3.75;1.73;;;;;;;11.77;100.00;97232.56;5059993;28;20486;-57
2023/07/22 00:08:49;;;;;;;3.88;2.10;;;;;;;11.87;100.00;97228.25;5062180;28;20047;-57
2023/07/22 00:11:16;;;;;;;3.05;1.80;;;;;;;11.76;100.00;97230.09;5062064;28;20037;-56
2023/07/22 00:13:43;;;;;;;3.88;1.80;;;;;;;11.56;100.00;97232.44;5060632;28;20045;-57
2023/07/22 00:16:10;;;;;;;4.95;1.80;;;;;;;11.40;100.00;97234.22;5061648;28;20093;-57
2023/07/22 00:18:37;;;;;;;4.68;1.88;;;;;;;11.40;100.00;97236.13;5063138;28;20045;-58
2023/07/22 00:21:03;;;;;;;6.63;2.40;;;;;;;11.43;100.00;97236.41;5065581;28;20044;-58
2023/07/22 00:23:30;;;;;;;4.22;1.77;;;;;;;11.54;100.00;97236.50;5065113;28;20408;-58
2023/07/22 00:25:57;;;;;;;5.15;1.65;;;;;;;11.40;100.00;97239.66;5063541;28;20044;-57
2023/07/22 00:28:23;;;;;;;4.43;1.70;;;;;;;11.03;100.00;97227.69;5064729;28;20041;-58
2023/07/22 00:30:50;;;;;;;4.10;2.30;;;;;;;10.80;100.00;97228.88;5065929;28;20040;-57
2023/07/22 00:33:17;;;;;;;6.18;2.10;;;;;;;10.66;100.00;97232.00;5063665;28;20035;-57
2023/07/22 00:35:50;;;;;;;4.70;2.00;;;;;;;10.68;100.00;97230.94;5063717;28;20590;-58
2023/07/22 00:38:16;;;;;;;3.85;2.08;;;;;;;10.62;100.00;97232.78;5065498;28;20032;-56
2023/07/22 00:40:43;;;;;;;3.28;1.73;;;;;;;10.60;100.00;97232.19;5066062;28;20100;-57
2023/07/22 00:43:10;;;;;;;5.05;2.15;;;;;;;10.69;100.00;97227.94;5063147;28;20504;-58
2023/07/22 00:45:37;;;;;;;4.93;2.28;;;;;;;10.77;100.00;97232.91;5062463;28;20056;-55
2023/07/22 00:48:05;;;;;;;4.78;2.10;;;;;;;10.80;100.00;97228.88;5064439;28;20051;-55
2023/07/22 00:50:33;;;;;;;4.05;2.03;;;;;;;10.85;100.00;97233.50;5065508;28;20477;-53
2023/07/22 00:52:59;;;;;;;6.40;1.95;;;;;;;10.93;100.00;97233.06;5061300;28;20123;-58
2023/07/22 00:55:27;;;;;;;5.43;1.85;;;;;;;11.02;100.00;97226.06;5065080;28;20529;-55
2023/07/22 00:57:55;;;;;;;6.05;2.15;;;;;;;11.30;100.00;97221.41;5066083;28;20040;-53
2023/07/22 01:00:22;;;;;;;4.78;2.42;;;;;;;11.08;100.00;97215.28;5065183;28;20511;-57
2023/07/22 01:02:49;;;;;;;3.67;1.67;;;;;;;10.90;100.00;97225.44;5065217;28;20609;-58
2023/07/22 01:05:16;;;;;;;3.95;1.85;;;;;;;10.62;100.00;97230.88;5063128;28;20080;-56
2023/07/22 01:07:42;;;;;;;3.67;1.95;;;;;;;10.62;100.00;97222.75;5064971;28;20036;-58
2023/07/22 01:10:09;;;;;;;7.05;2.00;;;;;;;10.50;100.00;97225.63;5061672;28;20135;-57
2023/07/22 01:12:36;;;;;;;3.60;2.05;;;;;;;10.46;100.00;97229.91;5067140;28;20735;-56
2023/07/22 01:15:07;;;;;;;4.65;2.35;;;;;;;10.44;100.00;97223.94;5064562;28;20503;-57
2023/07/22 01:17:36;;;;;;;4.03;2.15;;;;;;;10.45;100.00;97220.16;5064122;28;20481;-58
2023/07/22 01:20:04;;;;;;;3.90;1.85;;;;;;;10.52;100.00;97226.19;5052504;28;20645;-58
2023/07/22 01:22:33;;;;;;;4.13;2.10;;;;;;;10.54;100.00;97217.78;5064330;28;20181;-57
2023/07/22 01:25:00;;;;;;;5.28;1.98;;;;;;;10.57;100.00;97209.16;5062815;28;20488;-56
2023/07/22 01:27:27;;;;;;;6.15;2.13;;;;;;;10.54;100.00;97206.97;5066161;28;20128;-58
2023/07/22 01:29:55;;;;;;;3.67;2.00;;;;;;;10.50;100.00;97205.84;5064640;28;20174;-58
2023/07/22 01:32:22;;;;;;;8.90;2.40;;;;;;;10.64;100.00;97217.06;5076759;28;20048;-57
2023/07/22 01:34:48;;;;;;;5.68;2.00;;;;;;;10.71;100.00;97214.16;5064069;28;20045;-58
2023/07/22 01:37:15;;;;;;;4.00;2.00;;;;;;;10.76;100.00;97212.31;5064569;28;20044;-56
2023/07/22 01:39:41;;;;;;;4.32;2.10;;;;;;;10.63;100.00;97212.75;5064725;28;20040;-56
2023/07/22 01:42:08;;;;;;;5.18;2.30;;;;;;;10.54;100.00;97213.19;5064273;28;20511;-58
2023/07/22 01:44:35;;;;;;;3.88;1.90;;;;;;;10.45;100.00;97206.63;5065043;28;20653;-57
2023/07/22 01:47:03;;;;;;;4.22;2.17;;;;;;;10.34;100.00;97210.25;5064218;28;20659;-58
2023/07/22 01:49:30;;;;;;;6.93;2.03;;;;;;;10.33;100.00;97208.63;5063672;28;20110;-56
2023/07/22 01:51:56;;;;;;;4.15;1.95;;;;;;;10.28;100.00;97210.19;5064203;28;20025;-57
2023/07/22 01:54:23;;;;;;;4.78;2.38;;;;;;;10.34;100.00;97212.94;5064140;28;20047;-56
2023/07/22 01:56:49;;;;;;;4.40;2.17;;;;;;;10.35;100.00;97201.88;5062486;28;20036;-57
2023/07/22 01:59:16;;;;;;;4.78;2.28;;;;;;;10.33;100.00;97200.50;5062633;28;20048;-57
2023/07/22 02:01:44;;;;;;;4.03;2.20;;;;;;;10.22;100.00;97195.00;5063145;28;20572;-57
2023/07/22 02:04:10;;;;;;;4.50;1.75;;;;;;;10.17;100.00;97204.94;5061737;28;20127;-56
2023/07/22 02:06:38;;;;;;;3.83;1.98;;;;;;;10.15;100.00;97202.47;5063059;28;20569;-55
2023/07/22 02:09:13;;;;;;;8.75;2.25;;;;;;;10.11;100.00;97187.81;5062779;28;20040;-56
2023/07/22 02:11:40;;;;;;;4.63;2.30;;;;;;;10.08;100.00;97199.16;5061012;28;20044;-57
2023/07/22 02:14:07;;;;;;;4.00;2.33;;;;;;;9.86;100.00;97198.09;5063349;28;20552;-58
2023/07/22 02:16:37;;;;;;;6.00;2.30;;;;;;;9.79;100.00;97202.03;5062715;28;20462;-58
2023/07/22 02:19:04;;;;;;;5.22;2.33;;;;;;;9.93;100.00;97203.31;5062845;28;20044;-58
2023/07/22 02:21:38;;;;;;;5.05;2.10;;;;;;;9.90;100.00;97201.09;5062385;28;20052;-58
2023/07/22 02:24:05;;;;;;;4.47;1.73;;;;;;;9.67;100.00;97200.28;5064850;28;20043;-57
2023/07/22 02:26:32;;;;;;;3.72;1.90;;;;;;;9.52;100.00;97213.59;5061438;28;20048;-58
2023/07/22 02:28:58;;;;;;;5.07;2.10;;;;;;;9.57;100.00;97221.75;5062166;28;20040;-57
2023/07/22 02:31:25;;;;;;;4.07;2.20;;;;;;;9.62;100.00;97211.03;5063541;28;20116;-58
2023/07/22 02:33:52;;;;;;;4.35;2.25;;;;;;;9.83;100.00;97213.97;5061948;28;20047;-57
2023/07/22 02:36:18;;;;;;;7.15;2.60;;;;;;;9.85;100.00;97214.56;5061497;28;20511;-58
2023/07/22 02:38:45;;;;;;;4.18;2.20;;;;;;;9.96;100.00;97219.03;5063961;28;20037;-57
2023/07/22 02:41:12;;;;;;;3.72;2.17;;;;;;;10.00;100.00;97213.94;5063523;28;20040;-55
2023/07/22 02:43:40;;;;;;;4.28;2.05;;;;;;;10.02;100.00;97212.63;5062778;28;20642;-57
2023/07/22 02:46:07;;;;;;;5.80;2.15;;;;;;;9.90;100.00;97211.91;5063058;28;20439;-58
2023/07/22 02:48:35;;;;;;;4.10;2.20;;;;;;;9.63;100.00;97199.94;5062860;28;20569;-55
2023/07/22 02:51:06;;;;;;;3.85;2.00;;;;;;;9.55;100.00;97207.69;5062314;28;20114;-58
2023/07/22 02:53:33;;;;;;;4.45;2.13;;;;;;;9.59;100.00;97208.81;5062383;28;20037;-57
2023/07/22 02:56:00;;;;;;;6.45;2.47;;;;;;;9.74;100.00;97214.41;5062628;28;20040;-56
2023/07/22 02:58:27;;;;;;;3.72;1.95;;;;;;;9.79;100.00;97210.16;5063414;28;20051;-56
2023/07/22 03:00:53;;;;;;;3.65;1.83;;;;;;;9.58;100.00;97205.28;5061860;28;20037;-57
2023/07/22 03:03:20;;;;;;;4.50;2.38;;;;;;;9.63;100.00;97204.56;5062982;28;20050;-57
2023/07/22 03:05:47;;;;;;;6.10;2.25;;;;;;;9.60;100.00;97205.88;5061170;28;20422;-58
2023/07/22 03:08:14;;;;;;;4.22;2.20;;;;;;;9.44;100.00;97212.13;5061318;28;20397;-58
2023/07/22 03:10:41;;;;;;;3.97;2.10;;;;;;;9.42;100.00;97209.69;5062023;28;20748;-57
2023/07/22 03:13:07;;;;;;;5.10;2.95;;;;;;;9.53;100.00;97210.63;5059122;28;20128;-57
2023/07/22 03:15:34;;;;;;;4.00;2.38;;;;;;;9.76;100.00;97223.13;5058644;28;20052;-57
2023/07/22 03:18:00;;;;;;;4.97;2.50;;;;;;;9.97;100.00;97217.97;5063247;28;20078;-55
2023/07/22 03:20:27;;;;;;;5.18;2.70;;;;;;;10.23;100.00;97210.16;5059877;28;20044;-56
2023/07/22 03:22:54;;;;;;;5.47;2.28;;;;;;;10.44;100.00;97204.13;5061386;28;20712;-56
2023/07/22 03:25:21;;;;;;;4.68;2.38;;;;;;;10.48;100.00;97202.56;5060385;28;20032;-57
2023/07/22 03:27:47;;;;;;;6.25;2.63;;;;;;;10.53;100.00;97200.75;5062946;28;20735;-58
2023/07/22 03:30:17;;;;;;;4.72;2.30;;;;;;;10.49;100.00;97205.03;5061959;28;20083;-56
2023/07/22 03:32:45;;;;;;;6.43;2.42;;;;;;;10.49;100.00;97194.19;5060101;28;20052;-57
2023/07/22 03:35:12;;;;;;;4.60;2.22;;;;;;;10.47;100.00;97200.94;5061797;28;20456;-56
2023/07/22 03:37:39;;;;;;;6.68;2.65;;;;;;;10.57;100.00;97198.31;5062631;28;20103;-58
2023/07/22 03:40:19;;;;;;;5.13;2.50;;;;;;;10.69;100.00;97195.44;5064713;28;20036;-57
2023/07/22 03:42:51;;;;;;;3.72;2.13;;;;;;;10.86;100.00;97197.22;5060082;28;20567;-57
2023/07/22 03:45:18;;;;;;;5.50;2.40;;;;;;;10.72;100.00;97192.25;5059132;28;20044;-58
2023/07/22 03:47:46;;;;;;;4.50;2.53;;;;;;;10.93;100.00;97203.25;5058485;28;20518;-56
2023/07/22 03:50:13;;;;;;;4.70;2.05;;;;;;;11.05;100.00;97198.47;5059797;28;20087;-56
2023/07/22 03:52:40;;;;;;;4.57;2.67;;;;;;;11.04;100.00;97196.03;5058882;28;20428;-57
2023/07/22 03:55:07;;;;;;;4.18;2.20;;;;;;;11.06;100.00;97193.88;5058982;28;20159;-55
2023/07/22 03:57:33;;;;;;;5.13;2.10;;;;;;;11.13;100.00;97199.88;5058680;28;20564;-56
2023/07/22 04:00:04;;;;;;;5.82;2.63;;;;;;;11.21;100.00;97198.59;5059294;28;20067;-57
2023/07/22 04:02:38;;;;;;;6.80;2.10;;;;;;;11.29;100.00;97198.13;5057897;28;20049;-58
2023/07/22 04:05:05;;;;;;;4.80;2.30;;;;;;;11.22;100.00;97189.38;5058478;28;20036;-56
2023/07/22 04:07:31;;;;;;;3.60;2.33;;;;;;;11.29;100.00;97200.81;5057346;28;20049;-57
2023/07/22 04:09:58;;;;;;;4.32;2.20;;;;;;;11.32;100.00;97196.78;5058150;28;20573;-58
2023/07/22 04:12:24;;;;;;;4.40;2.22;;;;;;;11.23;100.00;97199.13;5062143;28;20045;-57
2023/07/22 04:14:51;;;;;;;6.70;2.22;;;;;;;11.28;100.00;97198.38;5061347;28;22278;-57
2023/07/22 04:17:17;;;;;;;3.47;1.92;;;;;;;11.40;100.00;97195.44;5061742;28;20841;-58
2023/07/22 04:19:44;;;;;;;5.03;2.40;;;;;;;11.43;100.00;97190.31;5062165;28;20117;-56
2023/07/22 04:22:13;;;;;;;4.55;1.70;;;;;;;11.53;100.00;97194.16;5061962;28;20123;-56
2023/07/22 04:24:39;;;;;;;3.92;2.08;;;;;;;11.58;100.00;97186.06;5062902;28;20059;-57
2023/07/22 04:27:06;;;;;;;4.80;2.40;;;;;;;11.56;100.00;97182.78;5059956;28;20048;-58
2023/07/22 04:29:33;;;;;;;4.82;1.92;;;;;;;11.66;100.00;97184.75;5062145;28;20086;-58
2023/07/22 04:32:00;;;;;;;4.95;2.15;;;;;;;11.70;100.00;97183.16;5059050;28;20047;-55
2023/07/22 04:34:31;;;;;;;3.47;2.10;;;;;;;11.62;100.00;97186.34;5059373;28;20267;-58
2023/07/22 04:36:58;;;;;;;3.10;1.67;;;;;;;11.59;100.00;97179.56;5059142;28;20052;-57
2023/07/22 04:39:25;;;;;;;4.00;1.92;;;;;;;11.61;100.00;97177.41;5058770;28;20041;-56
2023/07/22 04:41:51;;;;;;;4.43;2.10;;;;;;;11.63;100.00;97179.84;5060303;28;20078;-57
2023/07/22 04:44:19;;;;;;;3.88;2.03;;;;;;;11.67;100.00;97187.22;5057066;28;20075;-57
2023/07/22 04:46:46;;;;;;;4.93;2.10;;;;;;;11.67;100.00;97189.91;5059911;28;20040;-56
2023/07/22 04:49:13;;;;;;;6.65;2.40;;;;;;;11.66;100.00;97188.28;5061285;28;20041;-56
2023/07/22 04:51:40;;;;;;;4.40;2.10;;;;;;;11.69;100.00;97192.38;5061977;28;20041;-56
2023/07/22 04:54:07;;;;;;;4.10;2.20;;;;;;;11.67;100.00;97189.09;5059241;28;20044;-56
2023/07/22 04:56:34;;;;;;;4.40;2.22;;;;;;;11.77;100.00;97191.88;5058949;28;20102;-57
2023/07/22 04:59:00;;;;;;;3.45;2.05;;;;;;;11.87;100.00;97193.00;5060583;28;20044;-56
2023/07/22 05:01:28;;;;;;;4.18;1.92;;;;;;;11.97;100.00;97193.03;5060006;28;20044;-56
2023/07/22 05:03:54;;;;;;;5.10;2.00;;;;;;;12.08;100.00;97194.72;5058148;28;20037;-58
2023/07/22 05:06:22;;;;;;;3.58;1.95;;;;;;;12.12;100.00;97189.56;5059893;28;20633;-58
2023/07/22 05:08:49;;;;;;;5.03;2.22;;;;;;;12.19;100.00;97190.16;5063756;28;20705;-57
2023/07/22 05:11:15;;;;;;;3.90;1.83;;;;;;;12.22;100.00;97195.06;5063955;28;20048;-57
2023/07/22 05:13:42;;;;;;;4.22;1.85;;;;;;;12.32;100.00;97196.94;5062293;28;20048;-58
2023/07/22 05:16:08;;;;;;;4.30;2.10;;;;;;;12.42;100.00;97192.66;5062824;28;20036;-57
2023/07/22 05:18:35;;;;;;;5.22;2.50;;;;;;;12.53;100.00;97198.91;5062035;28;20125;-57
2023/07/22 05:21:01;;;;;;;4.95;1.83;;;;;;;12.66;100.00;97198.38;5062340;28;20106;-55
2023/07/22 05:23:28;;;;;;;4.05;1.80;;;;;;;12.82;100.00;97206.53;5061721;28;20097;-57
2023/07/22 05:25:54;;;;;;;4.03;2.13;;;;;;;12.98;100.00;97210.09;5062380;28;20041;-57
2023/07/22 05:28:21;;;;;;;3.72;1.73;;;;;;;13.12;100.00;97205.72;5060565;28;20915;-56
2023/07/22 05:30:50;;;;;;;3.70;1.90;;;;;;;13.24;100.00;97215.53;5062208;28;20068;-57
2023/07/22 05:33:17;;;;;;;4.38;1.90;;;;;;;13.36;100.00;97216.06;5062970;28;20044;-57
2023/07/22 05:35:43;;;;;;;4.82;1.85;;;;;;;13.46;98.43;97220.66;5064471;28;20536;-57
2023/07/22 05:38:14;;;;;;;5.55;2.00;;;;;;;13.56;97.95;97222.56;5064345;28;20090;-57
2023/07/22 05:40:41;;;;;;;4.60;1.95;;;;;;;13.63;96.99;97225.00;5064256;28;20675;-57
2023/07/22 05:43:07;;;;;;;4.10;2.08;;;;;;;13.70;96.84;97230.97;5064274;28;20403;-55
2023/07/22 05:45:34;;;;;;;5.97;2.53;;;;;;;13.74;96.06;97231.22;5064909;28;20120;-56
2023/07/22 05:48:00;;;;;;;3.20;1.50;;;;;;;13.78;95.68;97235.84;5064274;28;20046;-55
2023/07/22 05:50:27;;;;;;;3.97;2.33;;;;;;;13.85;94.94;97232.84;5064659;28;20115;-56
2023/07/22 05:52:53;;;;;;;5.65;2.30;;;;;;;13.94;94.77;97237.72;5064006;28;20069;-58
2023/07/22 05:55:20;;;;;;;8.32;2.10;;;;;;;14.05;94.62;97244.75;5063035;28;20523;-55
2023/07/22 05:57:47;;;;;;;3.92;1.80;;;;;;;14.12;95.10;97237.09;5064151;28;20040;-57
2023/07/22 06:00:13;;;;;;;5.00;1.65;;;;;;;14.26;94.08;97239.25;5064129;28;20055;-58
2023/07/22 06:02:40;;;;;;;3.92;1.90;;;;;;;14.40;93.63;97236.69;5064170;28;20032;-57
2023/07/22 06:05:07;;;;;;;3.80;1.70;;;;;;;14.51;89.70;97238.28;5062012;28;20037;-57
2023/07/22 06:07:34;;;;;;;6.55;2.03;;;;;;;14.65;88.88;97240.38;5063458;28;20045;-58
2023/07/22 06:10:01;;;;;;;4.32;1.58;;;;;;;14.77;88.32;97240.88;5064178;28;20123;-58
2023/07/22 06:12:27;;;;;;;3.65;1.83;;;;;;;14.90;86.92;97233.16;5064349;28;20107;-57
2023/07/22 06:14:54;;;;;;;7.25;1.70;;;;;;;15.03;87.55;97237.16;5063871;28;20594;-55
2023/07/22 06:17:21;;;;;;;3.67;1.80;;;;;;;15.16;85.77;97241.97;5062618;28;20119;-57
2023/07/22 06:19:48;;;;;;;3.75;1.67;;;;;;;15.23;84.68;97238.91;5063222;28;20036;-57
2023/07/22 06:22:14;;;;;;;4.57;2.10;;;;;;;15.34;84.31;97242.38;5063398;28;20049;-57
2023/07/22 06:24:41;;;;;;;2.97;1.33;;;;;;;15.45;84.23;97245.81;5063887;28;20040;-57
2023/07/22 06:27:07;;;;;;;2.72;1.40;;;;;;;15.56;83.05;97249.25;5063930;28;20033;-57
2023/07/22 06:29:34;;;;;;;3.33;1.65;;;;;;;15.64;82.37;97245.91;5062909;28;20050;-57
2023/07/22 06:32:00;;;;;;;4.50;1.83;;;;;;;15.76;82.41;97250.97;5063761;28;20048;-57
2023/07/22 06:34:27;;;;;;;5.45;1.63;;;;;;;15.87;81.88;97246.22;5062991;28;20040;-57
2023/07/22 06:36:54;;;;;;;5.57;1.80;;;;;;;15.98;82.48;97250.50;5063393;28;20037;-58
2023/07/22 06:39:20;;;;;;;3.83;1.60;;;;;;;16.10;81.11;97252.00;5062883;28;20049;-58
2023/07/22 06:41:47;;;;;;;2.95;1.27;;;;;;;16.22;81.20;97251.59;5064155;28;20040;-58
2023/07/22 06:44:13;;;;;;;5.18;1.75;;;;;;;16.36;78.78;97252.50;5063064;28;20520;-57
2023/07/22 06:46:40;;;;;;;3.70;1.95;;;;;;;16.48;78.95;97248.53;5062153;28;20041;-55
2023/07/22 06:49:07;;;;;;;2.88;1.45;;;;;;;16.58;78.61;97250.31;5060390;28;20064;-57
2023/07/22 06:51:33;;;;;;;4.75;1.60;;;;;;;16.70;77.64;97253.41;5060908;28;20521;-58
2023/07/22 06:54:02;;;;;;;2.95;1.38;;;;;;;16.90;77.12;97254.22;5059830;28;20040;-58
2023/07/22 06:56:29;;;;;;;3.92;1.40;;;;;;;17.04;75.38;97257.03;5058349;28;20118;-58
2023/07/22 06:58:56;;;;;;;3.88;1.27;;;;;;;17.18;73.38;97246.19;5061587;28;20620;-58
2023/07/22 07:01:23;;;;;;;2.30;1.20;;;;;;;17.33;71.03;97247.03;5060181;28;20048;-57
2023/07/22 07:03:50;;;;;;;5.40;1.38;;;;;;;17.49;71.05;97251.13;5059174;28;20045;-57
2023/07/22 07:06:17;;;;;;;2.97;1.10;;;;;;;17.61;70.30;97244.38;5060585;28;20474;-57
2023/07/22 07:08:43;;;;;;;2.85;1.40;;;;;;;17.69;68.66;97246.38;5059433;28;20055;-58
2023/07/22 07:11:10;;;;;;;3.17;1.40;;;;;;;17.73;67.10;97247.41;5063410;28;20049;-58
2023/07/22 07:13:36;;;;;;;4.75;1.30;;;;;;;17.77;67.58;97250.38;5060290;28;20487;-58
2023/07/22 07:16:23;;;;;;;2.65;1.27;;;;;;;17.83;67.89;97251.88;5059950;28;20143;-57
2023/07/22 07:18:51;;;;;;;5.30;1.50;;;;;;;17.94;67.56;97253.31;5059531;28;20040;-57
2023/07/22 07:21:20;;;;;;;3.28;1.30;;;;;;;18.06;66.80;97249.28;5061297;28;20443;-58
2023/07/22 07:23:48;;;;;;;3.10;1.30;;;;;;;18.16;66.03;97257.31;5060163;28;20071;-56
2023/07/22 07:26:15;;;;;;;2.45;1.10;;;;;;;18.24;65.19;97255.00;5059893;28;20127;-57
2023/07/22 07:28:42;;;;;;;2.63;1.20;;;;;;;18.33;65.86;97256.69;5060438;28;20596;-57
2023/07/22 07:31:08;;;;;;;4.35;1.48;;;;;;;18.41;65.23;97252.44;5061966;28;20771;-58
2023/07/22 07:33:35;;;;;;;2.65;1.15;;;;;;;18.51;64.07;97262.38;5062108;28;20040;-56
2023/07/22 07:36:03;;;;;;;4.50;1.17;;;;;;;18.57;62.03;97255.66;5059696;28;20033;-56
2023/07/22 07:38:29;;;;;;;3.45;1.08;;;;;;;18.69;62.56;97251.56;5060713;28;20044;-57
2023/07/22 07:40:58;;;;;;;3.65;1.13;;;;;;;18.77;61.46;97250.84;5060449;28;20052;-58
2023/07/22 07:43:24;;;;;;;2.67;1.15;;;;;;;18.91;62.31;97252.72;5059512;28;20040;-57
2023/07/22 07:46:12;;;;;;;2.20;1.15;;;;;;;19.02;63.01;97251.34;5060168;28;20044;-54
2023/07/22 07:48:38;;;;;;;3.67;1.20;;;;;;;19.09;61.99;97251.78;5060225;28;20036;-56
2023/07/22 07:51:05;;;;;;;3.20;1.02;;;;;;;19.20;60.13;97255.06;5061093;28;20056;-58
2023/07/22 07:53:31;;;;;;;2.88;1.25;;;;;;;19.40;56.84;97257.63;5061820;28;20063;-58
2023/07/22 07:55:58;;;;;;;4.25;1.38;;;;;;;19.50;56.12;97252.69;5061909;28;20036;-57
2023/07/22 07:58:24;;;;;;;4.40;1.20;;;;;;;19.52;55.35;97257.88;5061991;28;20056;-56
2023/07/22 08:00:51;;;;;;;2.47;1.02;;;;;;;19.57;52.93;97252.25;5062330;28;20053;-56
2023/07/22 08:03:18;;;;;;;2.85;1.42;;;;;;;19.64;53.71;97251.78;5061645;28;20041;-57
2023/07/22 08:05:44;;;;;;;4.32;1.63;;;;;;;19.79;52.38;97253.31;5062327;28;20048;-58
2023/07/22 08:08:11;;;;;;;2.00;0.88;;;;;;;19.91;50.93;97254.69;5061154;28;20094;-58
2023/07/22 08:10:38;;;;;;;3.03;1.10;;;;;;;20.12;50.00;97250.28;5062051;28;20047;-57
2023/07/22 08:13:05;;;;;;;1.95;1.00;;;;;;;20.14;48.06;97258.19;5062208;28;20036;-56
2023/07/22 08:15:32;;;;;;;2.17;1.00;;;;;;;20.21;48.95;97254.97;5060484;28;20064;-57
2023/07/22 08:17:58;;;;;;;3.55;0.88;;;;;;;20.35;48.42;97250.16;5060926;28;20090;-57
2023/07/22 08:20:25;;;;;;;2.70;1.02;;;;;;;20.42;48.14;97257.97;5061645;28;20520;-58
2023/07/22 08:22:51;;;;;;;2.03;0.93;;;;;;;20.60;46.89;97256.03;5059647;28;20045;-58
2023/07/22 08:25:18;;;;;;;2.63;1.17;;;;;;;20.70;47.17;97254.94;5057378;28;20053;-58
2023/07/22 08:27:45;;;;;;;3.28;1.00;;;;;;;20.90;46.50;97258.22;5060003;28;20043;-58
2023/07/22 08:30:12;;;;;;;6.07;1.17;;;;;;;20.95;46.53;97254.50;5059943;28;20086;-57
2023/07/22 08:32:38;;;;;;;2.75;0.90;;;;;;;20.95;45.47;97257.25;5058150;28;20507;-58
2023/07/22 08:35:06;;;;;;;1.70;0.82;;;;;;;20.85;45.75;97258.34;5058703;28;20714;-57
2023/07/22 08:37:33;;;;;;;3.28;0.80;;;;;;;21.00;45.20;97254.31;5059158;28;20633;-58
2023/07/22 08:39:59;;;;;;;2.28;1.00;;;;;;;21.02;45.21;97261.16;5060203;28;20041;-57
2023/07/22 08:42:31;;;;;;;2.55;1.15;;;;;;;21.23;44.47;97243.94;5064954;28;20157;-56
2023/07/22 08:45:01;;;;;;;1.73;0.85;;;;;;;21.33;45.78;97244.78;5064213;28;20053;-58
2023/07/22 08:47:29;;;;;;;3.05;1.27;;;;;;;21.51;45.03;97246.34;5062336;28;20339;-56
2023/07/22 08:50:01;;;;;;;1.98;0.90;;;;;;;21.44;45.22;97252.34;5064169;28;20641;-56
2023/07/22 08:52:27;;;;;;;2.67;1.02;;;;;;;21.42;45.23;97251.06;5063195;28;20055;-57
2023/07/22 08:54:55;;;;;;;4.13;1.67;;;;;;;21.44;44.60;97248.78;5062734;28;20032;-54
2023/07/22 08:57:22;;;;;;;3.05;1.08;;;;;;;21.37;43.49;97252.03;5059084;28;20102;-57
2023/07/22 08:59:49;;;;;;;3.13;0.90;;;;;;;21.29;45.12;97255.59;5062767;28;20400;-58
2023/07/22 09:02:16;;;;;;;1.52;0.80;;;;;;;21.10;44.23;97255.94;5061816;28;20055;-57
2023/07/22 09:04:43;;;;;;;5.45;1.65;;;;;;;21.08;44.44;97259.03;5060529;28;20048;-58
2023/07/22 09:07:11;;;;;;;1.92;0.90;;;;;;;20.91;46.19;97265.34;5062561;28;20128;-57
2023/07/22 09:09:38;;;;;;;1.90;1.00;;;;;;;20.87;45.21;97259.69;5064273;28;20040;-57
2023/07/22 09:12:06;;;;;;;2.58;1.10;;;;;;;20.86;45.03;97271.78;5064902;28;20041;-58
2023/07/22 09:14:34;;;;;;;3.63;1.30;;;;;;;20.77;45.87;97260.78;5061709;28;20047;-58
2023/07/22 09:17:03;;;;;;;1.90;1.10;;;;;;;20.90;45.29;97264.53;5062403;28;20628;-56
2023/07/22 09:19:30;;;;;;;2.08;1.48;;;;;;;21.13;45.36;97266.31;5061855;28;20033;-57
2023/07/22 09:21:58;;;;;;;2.10;0.93;;;;;;;21.18;44.94;97257.88;5063645;28;20121;-55
2023/07/22 09:24:27;;;;;;;2.25;1.00;;;;;;;21.42;45.22;97260.13;5062147;28;20051;-58
2023/07/22 09:26:54;;;;;;;2.10;1.00;;;;;;;21.42;45.20;97256.56;5062248;28;20040;-56
2023/07/22 09:29:35;;;;;;;2.83;1.17;;;;;;;21.50;44.74;97250.25;5062749;28;20041;-58
2023/07/22 09:32:03;;;;;;;2.00;0.87;;;;;;;21.59;45.58;97255.72;5063460;28;20129;-57
2023/07/22 09:34:30;;;;;;;2.35;0.98;;;;;;;21.89;44.67;97244.78;5060643;28;20443;-57
2023/07/22 09:37:00;;;;;;;4.15;1.60;;;;;;;21.89;45.29;97247.56;5061903;28;20048;-56
2023/07/22 09:39:27;;;;;;;5.00;2.28;;;;;;;22.07;43.90;97248.31;5061417;28;20067;-57
2023/07/22 09:41:54;;;;;;;2.83;0.90;;;;;;;22.01;44.12;97249.63;5064622;28;20124;-58
2023/07/22 09:44:21;;;;;;;2.60;1.05;;;;;;;21.89;44.37;97246.75;5060079;28;20051;-58
2023/07/22 09:46:49;;;;;;;2.22;1.00;;;;;;;21.85;44.53;97248.56;5059137;28;20677;-56
2023/07/22 09:49:18;;;;;;;2.72;1.30;;;;;;;21.60;42.34;97259.28;5063260;28;20048;-57
2023/07/22 09:51:44;;;;;;;3.00;1.00;;;;;;;21.61;43.05;97255.41;5061187;28;20052;-56
2023/07/22 09:54:30;;;;;;;2.10;0.73;;;;;;;21.77;42.98;97244.69;5062294;28;20044;-57
2023/07/22 09:56:58;;;;;;;1.55;0.88;;;;;;;21.64;43.41;97252.78;5061720;28;20044;-56
2023/07/22 09:59:28;;;;;;;3.05;1.15;;;;;;;21.61;43.61;97258.16;5061811;28;20044;-58
2023/07/22 10:01:56;;;;;;;2.50;1.00;;;;;;;21.74;43.24;97243.38;5063278;28;20048;-58
2023/07/22 10:04:28;;;;;;;2.30;0.90;;;;;;;21.86;44.54;97236.38;5060550;28;20816;-56
2023/07/22 10:06:54;;;;;;;1.67;0.80;;;;;;;21.81;43.26;97232.69;5061252;28;20044;-58
2023/07/22 10:09:22;;;;;;;3.92;1.10;;;;;;;;;;5060800;28;20032;-57
2023/07/22 10:11:49;;;;;;;3.05;1.00;;;;;;;22.01;43.35;97240.53;5062512;28;20075;-58
2023/07/22 10:14:17;;;;;;;2.65;1.40;;;;;;;21.98;44.24;97238.44;5061829;28;20045;-58
2023/07/22 10:16:44;;;;;;;2.60;1.00;;;;;;;22.24;43.52;97243.84;5058487;28;20032;-58
2023/07/22 10:19:11;;;;;;;2.25;1.00;;;;;;;22.16;42.23;97250.22;5062997;28;20094;-58
2023/07/22 10:21:38;;;;;;;3.50;1.27;;;;;;;22.32;42.24;97234.72;5061911;28;20033;-58
2023/07/22 10:24:05;;;;;;;4.65;1.30;;;;;;;22.34;42.62;97235.19;5059916;28;20056;-58
2023/07/22 10:26:32;;;;;;;2.17;0.90;;;;;;;22.49;41.96;97235.75;5061832;28;20072;-58
2023/07/22 10:29:13;;;;;;;2.65;1.10;;;;;;;22.93;41.87;97235.47;5059687;28;20040;-58
2023/07/22 10:31:40;;;;;;;2.10;0.95;;;;;;;23.05;41.56;97229.19;5061532;28;20572;-58
2023/07/22 10:34:06;;;;;;;1.67;0.98;;;;;;;22.87;41.71;97225.78;5061320;28;20044;-57
2023/07/22 10:36:33;;;;;;;5.00;0.90;;;;;;;22.76;42.54;97225.38;5061517;28;20124;-58
2023/07/22 10:38:59;;;;;;;3.35;1.33;;;;;;;22.72;42.27;97219.72;5061508;28;20106;-57
2023/07/22 10:41:30;;;;;;;1.85;1.00;;;;;;;22.75;42.12;97223.75;5061699;28;20048;-57
2023/07/22 10:43:59;;;;;;;3.13;1.30;;;;;;;22.81;42.85;97216.09;5061314;28;20411;-57
2023/07/22 10:46:33;;;;;;;2.42;0.93;;;;;;;22.85;42.65;97217.03;5060883;28;20074;-58
2023/07/22 10:49:10;;;;;;;3.05;1.13;;;;;;;23.26;42.22;97207.06;5060891;28;20043;-58
2023/07/22 10:51:37;;;;;;;3.88;1.30;;;;;;;23.33;40.33;97214.00;5061217;28;20048;-57
2023/07/22 10:54:14;;;;;;;2.45;1.30;;;;;;;23.19;40.49;97214.28;5059264;28;20032;-57
2023/07/22 10:56:43;;;;;;;3.33;1.35;;;;;;;22.48;41.58;97223.09;5060624;28;20044;-56
2023/07/22 10:59:11;;;;;;;2.08;0.90;;;;;;;22.31;42.70;97221.25;5059547;28;20112;-57
2023/07/22 11:01:43;;;;;;;2.85;1.33;;;;;;;21.99;43.34;97216.06;5063042;28;20052;-57
2023/07/22 11:04:32;;;;;;;2.53;0.95;;;;;;;22.42;44.12;97211.47;5059635;28;20040;-58
2023/07/22 11:07:06;;;;;;;;;;;;;;;22.40;43.47;97213.72;5060851;28;20056;-59
2023/07/22 11:09:37;;;;;;;2.65;1.27;;;;;;;22.66;42.81;97209.22;5060331;28;20018;-58
2023/07/22 11:12:07;;;;;;;2.78;1.50;;;;;;;22.61;44.23;97212.97;5061163;28;20123;-57
2023/07/22 11:15:02;;;;;;;2.35;1.15;;;;;;;22.50;43.48;97209.78;5060791;28;20044;-58
2023/07/22 11:17:30;;;;;;;4.30;1.35;;;;;;;22.31;43.42;97204.72;5060620;28;20047;-58
2023/07/22 11:19:59;;;;;;;3.47;1.30;;;;;;;22.74;43.15;97195.34;5061172;28;20070;-58
2023/07/22 11:22:25;;;;;;;2.63;1.02;;;;;;;23.15;41.39;97180.22;5058575;28;20148;-58
2023/07/22 11:24:52;;;;;;;3.08;1.33;;;;;;;23.20;41.77;97177.25;5059803;28;20047;-57
2023/07/22 11:27:19;;;;;;;2.58;1.27;;;;;;;23.20;41.36;97178.06;5059954;28;20152;-58
2023/07/22 11:29:48;;;;;;;3.50;1.35;;;;;;;23.37;40.94;97168.00;5060586;28;20317;-57
2023/07/22 11:32:16;;;;;;;2.83;1.23;;;;;;;23.07;41.67;97176.41;5060394;28;20048;-58
2023/07/22 11:34:46;;;;;;;3.50;1.23;;;;;;;22.94;41.58;97176.34;5060182;28;20052;-58